x

Buoy I01 - Eastern Maine Shelf (44034) Wave Buoy

9:04pm - Sun 23rd Nov 2014 All times are EST. -5 hours from GMT.

  • Sig Wave height 4.3ft
  • Peak Period 8s
  • Wind
    11mph, 13mph gusts
  • Sea Temp 51°f
  • Air Temp 50°f
  • Sea Pressure 1020.7mb
  • Buoy I01 - Eastern Maine Shelf
  • Buoy I01 - Eastern Maine Shelf

More Historic Weather Station data

Upgrade to MSW Pro to gain access to the past 30 days of data for over 8000 Wavebouys and Weather Stations around the globe.

Join Pro

Comparision Forecast

View Surf forecast
   
Sun 11/23 9:04pm 4.5ft 8s 11 13 mph 1020.7mb 51f 50f
8:04pm 4.5ft 8s 7
mph
1020.2mb 51f 50f
7:04pm 5ft 8s 7
mph
1019.5mb 51f 50f
6:04pm 5ft 8s 4 7 mph 1019.2mb 51f 50f
5:04pm 5.5ft 8s 7 9 mph 1019.2mb 51f 50f
4:04pm 5.5ft 8s 9 11 mph 1018.9mb 51f 50f
3:04pm 5.5ft 8s 11 13 mph 1018.3mb 51f 50f
2:04pm 6ft 8s 9 11 mph 1017.1mb 51f 50f
1:04pm 6ft 8s 13 16 mph 1016.8mb 51f 49f
12:04pm 8ft 8s 13 16 mph 1016.6mb 51f 49f
11:04am 8ft 8s 13 16 mph 1016.9mb 51f 49f
10:04am 8.5ft 8s 13 18 mph 1016.9mb 51f 48f
9:04am 8ft 8s 16 20 mph 1016.6mb 51f 48f
8:04am 9.5ft 8s 18 20 mph 1015.7mb 51f 47f
7:04am 9ft 8s 16 18 mph 1015.3mb 51f 46f
6:04am 11ft 11s 22 27 mph 1014.2mb 51f 47f
5:04am 12ft 11s 25 29 mph 1013.5mb 51f 47f
4:04am 10ft 11s 22 27 mph 1013mb 50f 47f
3:04am 10.5ft 11s 22 27 mph 1012.8mb 50f 47f
2:04am 12ft 11s 22 27 mph 1012.8mb 50f 47f
1:04am 12ft 8s 22 27 mph 1012.2mb 50f 46f
12:04am 11.5ft 8s 29 36 mph 1012.1mb 50f 47f
Sat 11/22 11:04pm 11ft 8s 31 40 mph 1011.8mb 50f 47f
10:04pm 10ft 8s 34 38 mph 1011.5mb 50f 47f
9:04pm 10.5ft 8s 31 38 mph 1012.2mb 50f 47f
8:04pm 10.5ft 8s 31 38 mph 1012.6mb 50f 47f
7:04pm 10ft 8s 31 36 mph 1013.6mb 50f 46f
6:04pm 9.5ft 8s 31 40 mph 1014.6mb 50f 45f
5:04pm 8.5ft 6s 31 36 mph 1015.2mb 50f 44f
4:04pm 9ft 8s 29 38 mph 1015.7mb 50f 43f
3:04pm 9ft 6s 31 36 mph 1016.4mb 50f 42f
2:04pm 7ft 6s 29 34 mph 1017.5mb 50f 41f
1:04pm 6.5ft 5s 29 36 mph 1018.2mb 50f 40f
12:04pm 4.5ft 5s 25 29 mph 1019.8mb 50f 38f
11:04am 3.5ft 5s 25 31 mph 1021.5mb 50f 37f
10:04am 3.5ft 5s 18 22 mph 1023.7mb 50f 33f
9:04am 3.5ft 5s 16 22 mph 1024.7mb 50f 31f
8:04am 4.5ft 5s 18 22 mph 1025.1mb 50f 30f
7:04am 4.5ft 5s 20 22 mph 1025.5mb 50f 30f
6:04am 4.5ft 5s 20 27 mph 1025.4mb 50f 29f
5:04am 4ft 4s 22 27 mph 1025.5mb 50f 28f
4:04am 4ft 6s 18 25 mph 1025.6mb 50f 27f
3:04am 4.5ft 5s 22 27 mph 1025.6mb 50f 27f
2:04am 4.5ft 6s 20 27 mph 1025.6mb 50f 27f
1:04am 4.5ft 4s 25 31 mph 1024.8mb 50f 27f
12:04am 4.5ft 4s 29 34 mph 1023.8mb 50f 27f
Fri 11/21 11:04pm 5ft 4s 29 36 mph 1023.3mb 51f 28f
10:04pm 4.5ft 5s 25 31 mph 1023.2mb 51f 28f
9:04pm 5ft 6s 27 36 mph 1022.5mb 51f 29f
8:04pm 5ft 5s 27 34 mph 1021.5mb 51f 30f
7:04pm 5ft 4s 27 31 mph 1020.7mb 51f 31f
6:04pm 5.5ft 5s 31 38 mph 1019.9mb 51f 31f
5:04pm 5ft 5s 27 34 mph 1018.9mb 50f 32f
4:04pm 5ft 5s 29 38 mph 1017.2mb 50f 33f
3:04pm 5ft 6s 27 36 mph 1015.3mb 51f 33f
2:04pm 5.5ft 8s 27 31 mph 1013.8mb 51f 34f
1:04pm 4.5ft 6s 25 29 mph 1012.9mb 51f 34f
12:04pm 4.5ft 5s 22 31 mph 1012.3mb 51f 33f
11:04am 4.5ft 6s 25 31 mph 1012.1mb 51f 32f
10:04am 5.5ft 8s 27 34 mph 1011.8mb 51f 32f
9:04am 6ft 8s 25 29 mph 1011.4mb 51f 32f
8:04am 6ft 5s 25 31 mph 1011.1mb 51f 33f
7:04am 5.5ft 6s 25 29 mph 1010.4mb 51f 33f
6:04am 5.5ft 8s 25 31 mph 1009.7mb 51f 33f
5:04am 6ft 8s 25 29 mph 1009.1mb 51f 34f
4:04am 6ft 8s 25 29 mph 1008.7mb 51f 34f
3:04am 5.5ft 8s 20 25 mph 1008.5mb 51f 35f
2:04am 5ft 8s 18 22 mph 1008.5mb 51f 36f
1:04am 5ft 8s 18 22 mph 1008.4mb 51f 37f
12:04am 6ft 6s 20 22 mph 1008.4mb 51f 37f
Thu 11/20 11:04pm 6ft 6s 22 27 mph 1007.9mb 51f 37f
10:04pm 6ft 6s 25 29 mph 1007.9mb 51f 38f
9:04pm 6ft 5s 22 27 mph 1007.8mb 51f 40f
8:04pm 6.5ft 8s 27 34 mph 1007mb 51f 41f
7:04pm 6.5ft 8s 20 25 mph 1006.3mb 51f 42f
6:04pm 7.5ft 8s 20 22 mph 1005.7mb 51f 43f
5:04pm 7.5ft 8s 20 22 mph 1005.5mb 51f 44f
4:04pm 8ft 8s 25 31 mph 1005.4mb 51f 45f
3:04pm 9ft 8s 27 31 mph 1005.1mb 51f 46f
2:04pm 9.5ft 8s 25 29 mph 1005.6mb 51f 46f
1:04pm 7.5ft 8s 22 29 mph 1006.2mb 51f 46f
12:04pm 8.5ft 8s 25 29 mph 1007.1mb 51f 45f
11:04am 7.5ft 8s 25 29 mph 1008.4mb 51f 44f
10:04am 8ft 8s 22 29 mph 1009.6mb 51f 43f
9:04am 8ft 8s 22 31 mph 1010.3mb 51f 41f
8:04am 9.5ft 8s 25 34 mph 1010.6mb 51f 43f
7:04am 9ft 8s 27 31 mph 1010.7mb 51f 43f
6:04am 9ft 8s 27 34 mph 1010.9mb 51f 43f
5:04am 8.5ft 6s 29 36 mph 1011.8mb 51f 42f
4:04am 7ft 8s 25 29 mph 1013.2mb 51f 39f